sensor_id;sensor_type;location;lat;lon;timestamp;temperature;humidity
52869;DHT22;39100;53.480;6.158;2024-03-25T00:01:33;7.40;99.90
52869;DHT22;39100;53.480;6.158;2024-03-25T00:03:59;7.40;99.90
52869;DHT22;39100;53.480;6.158;2024-03-25T00:06:25;7.40;99.90
52869;DHT22;39100;53.480;6.158;2024-03-25T00:08:50;7.40;99.90
52869;DHT22;39100;53.480;6.158;2024-03-25T00:11:16;7.40;99.90
52869;DHT22;39100;53.480;6.158;2024-03-25T00:13:42;7.40;99.90
52869;DHT22;39100;53.480;6.158;2024-03-25T00:16:07;7.40;99.90
52869;DHT22;39100;53.480;6.158;2024-03-25T00:18:33;7.40;99.90
52869;DHT22;39100;53.480;6.158;2024-03-25T00:20:59;7.40;99.90
52869;DHT22;39100;53.480;6.158;2024-03-25T00:23:25;7.40;99.90
52869;DHT22;39100;53.480;6.158;2024-03-25T00:25:50;7.40;99.90
52869;DHT22;39100;53.480;6.158;2024-03-25T00:28:17;7.40;99.90
52869;DHT22;39100;53.480;6.158;2024-03-25T00:30:44;7.40;99.90
52869;DHT22;39100;53.480;6.158;2024-03-25T00:33:10;7.50;99.90
52869;DHT22;39100;53.480;6.158;2024-03-25T00:35:36;7.50;99.90
52869;DHT22;39100;53.480;6.158;2024-03-25T00:38:02;7.50;99.90
52869;DHT22;39100;53.480;6.158;2024-03-25T00:40:29;7.50;99.90
52869;DHT22;39100;53.480;6.158;2024-03-25T00:42:55;7.50;99.90
52869;DHT22;39100;53.480;6.158;2024-03-25T00:45:21;7.40;99.90
52869;DHT22;39100;53.480;6.158;2024-03-25T00:47:46;7.40;99.90
52869;DHT22;39100;53.480;6.158;2024-03-25T00:50:14;7.40;99.90
52869;DHT22;39100;53.480;6.158;2024-03-25T00:52:40;7.40;99.90
52869;DHT22;39100;53.480;6.158;2024-03-25T00:55:06;7.40;99.90
52869;DHT22;39100;53.480;6.158;2024-03-25T00:57:33;7.40;99.90
52869;DHT22;39100;53.480;6.158;2024-03-25T00:59:59;7.30;99.90
52869;DHT22;39100;53.480;6.158;2024-03-25T01:02:25;7.30;99.90
52869;DHT22;39100;53.480;6.158;2024-03-25T01:04:52;7.30;99.90
52869;DHT22;39100;53.480;6.158;2024-03-25T01:07:19;7.30;99.90
52869;DHT22;39100;53.480;6.158;2024-03-25T01:09:45;7.30;99.90
52869;DHT22;39100;53.480;6.158;2024-03-25T01:12:11;7.20;99.90
52869;DHT22;39100;53.480;6.158;2024-03-25T01:14:37;7.20;99.90
52869;DHT22;39100;53.480;6.158;2024-03-25T01:17:02;7.20;99.90
52869;DHT22;39100;53.480;6.158;2024-03-25T01:19:28;7.20;99.90
52869;DHT22;39100;53.480;6.158;2024-03-25T01:21:54;7.10;99.90
52869;DHT22;39100;53.480;6.158;2024-03-25T01:24:20;7.10;99.90
52869;DHT22;39100;53.480;6.158;2024-03-25T01:26:45;7.10;99.90
52869;DHT22;39100;53.480;6.158;2024-03-25T01:29:11;7.10;99.90
52869;DHT22;39100;53.480;6.158;2024-03-25T01:31:38;7.00;99.90
52869;DHT22;39100;53.480;6.158;2024-03-25T01:34:03;7.10;99.90
52869;DHT22;39100;53.480;6.158;2024-03-25T01:36:29;7.10;99.90
52869;DHT22;39100;53.480;6.158;2024-03-25T01:38:55;7.10;99.90
52869;DHT22;39100;53.480;6.158;2024-03-25T01:41:21;7.10;99.90
52869;DHT22;39100;53.480;6.158;2024-03-25T01:43:50;7.10;99.90
52869;DHT22;39100;53.480;6.158;2024-03-25T01:46:20;7.10;99.90
52869;DHT22;39100;53.480;6.158;2024-03-25T01:48:47;7.20;99.90
52869;DHT22;39100;53.480;6.158;2024-03-25T01:51:16;7.20;99.90
52869;DHT22;39100;53.480;6.158;2024-03-25T01:53:43;7.20;99.90
52869;DHT22;39100;53.480;6.158;2024-03-25T01:56:10;7.20;99.90
52869;DHT22;39100;53.480;6.158;2024-03-25T01:58:37;7.20;99.90
52869;DHT22;39100;53.480;6.158;2024-03-25T02:01:03;7.10;99.90
52869;DHT22;39100;53.480;6.158;2024-03-25T02:03:30;7.10;99.90
52869;DHT22;39100;53.480;6.158;2024-03-25T02:05:58;7.10;99.90
52869;DHT22;39100;53.480;6.158;2024-03-25T02:08:26;7.10;99.90
52869;DHT22;39100;53.480;6.158;2024-03-25T02:10:54;7.10;99.90
52869;DHT22;39100;53.480;6.158;2024-03-25T02:13:21;7.10;99.90
52869;DHT22;39100;53.480;6.158;2024-03-25T02:15:47;7.10;99.90
52869;DHT22;39100;53.480;6.158;2024-03-25T02:18:19;7.10;99.90
52869;DHT22;39100;53.480;6.158;2024-03-25T02:20:45;7.10;99.90
52869;DHT22;39100;53.480;6.158;2024-03-25T02:23:11;7.10;99.90
52869;DHT22;39100;53.480;6.158;2024-03-25T02:25:39;7.10;99.90
52869;DHT22;39100;53.480;6.158;2024-03-25T02:28:06;7.10;99.90
52869;DHT22;39100;53.480;6.158;2024-03-25T02:30:31;7.10;99.90
52869;DHT22;39100;53.480;6.158;2024-03-25T02:32:57;7.10;99.90
52869;DHT22;39100;53.480;6.158;2024-03-25T02:35:24;7.10;99.90
52869;DHT22;39100;53.480;6.158;2024-03-25T02:37:51;7.10;99.90
52869;DHT22;39100;53.480;6.158;2024-03-25T02:40:17;7.10;99.90
52869;DHT22;39100;53.480;6.158;2024-03-25T02:42:43;7.10;99.90
52869;DHT22;39100;53.480;6.158;2024-03-25T02:45:09;7.10;99.90
52869;DHT22;39100;53.480;6.158;2024-03-25T02:47:35;7.00;99.90
52869;DHT22;39100;53.480;6.158;2024-03-25T02:50:01;7.00;99.90
52869;DHT22;39100;53.480;6.158;2024-03-25T02:52:27;7.00;99.90
52869;DHT22;39100;53.480;6.158;2024-03-25T02:54:52;7.00;99.90
52869;DHT22;39100;53.480;6.158;2024-03-25T02:57:20;7.10;99.90
52869;DHT22;39100;53.480;6.158;2024-03-25T02:59:45;7.00;99.90
52869;DHT22;39100;53.480;6.158;2024-03-25T03:02:11;7.00;99.90
52869;DHT22;39100;53.480;6.158;2024-03-25T03:04:37;7.00;99.90
52869;DHT22;39100;53.480;6.158;2024-03-25T03:07:03;7.10;99.90
52869;DHT22;39100;53.480;6.158;2024-03-25T03:09:28;7.10;99.90
52869;DHT22;39100;53.480;6.158;2024-03-25T03:11:54;7.10;99.90
52869;DHT22;39100;53.480;6.158;2024-03-25T03:14:20;7.10;99.90
52869;DHT22;39100;53.480;6.158;2024-03-25T03:16:46;7.10;99.90
52869;DHT22;39100;53.480;6.158;2024-03-25T03:19:11;7.10;99.90
52869;DHT22;39100;53.480;6.158;2024-03-25T03:21:37;7.10;99.90
52869;DHT22;39100;53.480;6.158;2024-03-25T03:24:03;7.10;99.90
52869;DHT22;39100;53.480;6.158;2024-03-25T03:26:29;7.10;99.90
52869;DHT22;39100;53.480;6.158;2024-03-25T03:28:58;7.10;99.90
52869;DHT22;39100;53.480;6.158;2024-03-25T03:31:24;7.10;99.90
52869;DHT22;39100;53.480;6.158;2024-03-25T03:33:50;7.10;99.90
52869;DHT22;39100;53.480;6.158;2024-03-25T03:36:17;7.10;99.90
52869;DHT22;39100;53.480;6.158;2024-03-25T03:38:43;7.20;99.90
52869;DHT22;39100;53.480;6.158;2024-03-25T03:41:09;7.20;99.90
52869;DHT22;39100;53.480;6.158;2024-03-25T03:43:35;7.20;99.90
52869;DHT22;39100;53.480;6.158;2024-03-25T03:46:01;7.20;99.90
52869;DHT22;39100;53.480;6.158;2024-03-25T03:48:28;7.10;99.90
52869;DHT22;39100;53.480;6.158;2024-03-25T03:50:53;7.10;99.90
52869;DHT22;39100;53.480;6.158;2024-03-25T03:53:20;7.20;99.90
52869;DHT22;39100;53.480;6.158;2024-03-25T03:55:59;7.20;99.90
52869;DHT22;39100;53.480;6.158;2024-03-25T03:58:25;7.20;99.90
52869;DHT22;39100;53.480;6.158;2024-03-25T04:00:51;7.20;99.90
52869;DHT22;39100;53.480;6.158;2024-03-25T04:03:18;7.10;99.90
52869;DHT22;39100;53.480;6.158;2024-03-25T04:05:44;7.20;99.90
52869;DHT22;39100;53.480;6.158;2024-03-25T04:08:10;7.10;99.90
52869;DHT22;39100;53.480;6.158;2024-03-25T04:10:36;7.20;99.90
52869;DHT22;39100;53.480;6.158;2024-03-25T04:13:03;7.20;99.90
52869;DHT22;39100;53.480;6.158;2024-03-25T04:15:32;7.20;99.90
52869;DHT22;39100;53.480;6.158;2024-03-25T04:17:58;7.20;99.90
52869;DHT22;39100;53.480;6.158;2024-03-25T04:20:23;7.20;99.90
52869;DHT22;39100;53.480;6.158;2024-03-25T04:22:49;7.20;99.90
52869;DHT22;39100;53.480;6.158;2024-03-25T04:25:15;7.10;99.90
52869;DHT22;39100;53.480;6.158;2024-03-25T04:27:41;7.10;99.90
52869;DHT22;39100;53.480;6.158;2024-03-25T04:30:07;7.10;99.90
52869;DHT22;39100;53.480;6.158;2024-03-25T04:32:34;7.10;99.90
52869;DHT22;39100;53.480;6.158;2024-03-25T04:35:01;7.10;99.90
52869;DHT22;39100;53.480;6.158;2024-03-25T04:37:27;7.10;99.90
52869;DHT22;39100;53.480;6.158;2024-03-25T04:39:53;7.00;99.90
52869;DHT22;39100;53.480;6.158;2024-03-25T04:42:19;7.00;99.90
52869;DHT22;39100;53.480;6.158;2024-03-25T04:44:45;7.00;99.90
52869;DHT22;39100;53.480;6.158;2024-03-25T04:47:11;7.00;99.90
52869;DHT22;39100;53.480;6.158;2024-03-25T04:49:37;6.90;99.90
52869;DHT22;39100;53.480;6.158;2024-03-25T04:52:06;6.90;99.90
52869;DHT22;39100;53.480;6.158;2024-03-25T04:54:32;6.80;99.90
52869;DHT22;39100;53.480;6.158;2024-03-25T04:56:58;6.70;99.90
52869;DHT22;39100;53.480;6.158;2024-03-25T04:59:23;6.70;99.90
52869;DHT22;39100;53.480;6.158;2024-03-25T05:01:49;6.70;99.90
52869;DHT22;39100;53.480;6.158;2024-03-25T05:04:15;6.60;99.90
52869;DHT22;39100;53.480;6.158;2024-03-25T05:06:40;6.60;99.90
52869;DHT22;39100;53.480;6.158;2024-03-25T05:09:06;6.60;99.90
52869;DHT22;39100;53.480;6.158;2024-03-25T05:11:32;6.50;99.90
52869;DHT22;39100;53.480;6.158;2024-03-25T05:13:58;6.50;99.90
52869;DHT22;39100;53.480;6.158;2024-03-25T05:16:24;6.50;99.90
52869;DHT22;39100;53.480;6.158;2024-03-25T05:18:49;6.50;99.90
52869;DHT22;39100;53.480;6.158;2024-03-25T05:21:15;6.50;99.90
52869;DHT22;39100;53.480;6.158;2024-03-25T05:23:41;6.50;99.90
52869;DHT22;39100;53.480;6.158;2024-03-25T05:26:06;6.50;99.90
52869;DHT22;39100;53.480;6.158;2024-03-25T05:28:32;6.50;99.90
52869;DHT22;39100;53.480;6.158;2024-03-25T05:31:08;6.60;99.90
52869;DHT22;39100;53.480;6.158;2024-03-25T05:33:34;6.60;99.90
52869;DHT22;39100;53.480;6.158;2024-03-25T05:36:00;6.60;99.90
52869;DHT22;39100;53.480;6.158;2024-03-25T05:38:26;6.60;99.90
52869;DHT22;39100;53.480;6.158;2024-03-25T05:40:52;6.70;99.90
52869;DHT22;39100;53.480;6.158;2024-03-25T05:43:18;6.70;99.90
52869;DHT22;39100;53.480;6.158;2024-03-25T05:45:55;6.70;99.90
52869;DHT22;39100;53.480;6.158;2024-03-25T05:48:23;6.70;99.90
52869;DHT22;39100;53.480;6.158;2024-03-25T05:51:03;6.70;99.90
52869;DHT22;39100;53.480;6.158;2024-03-25T05:53:35;6.70;99.90
52869;DHT22;39100;53.480;6.158;2024-03-25T05:56:01;6.70;99.90
52869;DHT22;39100;53.480;6.158;2024-03-25T05:58:27;6.60;99.90
52869;DHT22;39100;53.480;6.158;2024-03-25T06:00:53;6.70;99.90
52869;DHT22;39100;53.480;6.158;2024-03-25T06:03:20;6.60;99.90
52869;DHT22;39100;53.480;6.158;2024-03-25T06:05:46;6.60;99.90
52869;DHT22;39100;53.480;6.158;2024-03-25T06:08:11;6.60;99.90
52869;DHT22;39100;53.480;6.158;2024-03-25T06:10:52;6.60;99.90
52869;DHT22;39100;53.480;6.158;2024-03-25T06:13:19;6.60;99.90
52869;DHT22;39100;53.480;6.158;2024-03-25T06:15:45;6.70;99.90
52869;DHT22;39100;53.480;6.158;2024-03-25T06:18:11;6.70;99.90
52869;DHT22;39100;53.480;6.158;2024-03-25T06:20:36;6.70;99.90
52869;DHT22;39100;53.480;6.158;2024-03-25T06:23:03;6.70;99.90
52869;DHT22;39100;53.480;6.158;2024-03-25T06:25:29;6.70;99.90
52869;DHT22;39100;53.480;6.158;2024-03-25T06:27:55;6.70;99.90
52869;DHT22;39100;53.480;6.158;2024-03-25T06:30:20;6.70;99.90
52869;DHT22;39100;53.480;6.158;2024-03-25T06:33:05;6.80;99.90
52869;DHT22;39100;53.480;6.158;2024-03-25T06:35:49;6.80;99.90
52869;DHT22;39100;53.480;6.158;2024-03-25T06:38:15;6.80;99.90
52869;DHT22;39100;53.480;6.158;2024-03-25T06:40:40;6.80;99.90
52869;DHT22;39100;53.480;6.158;2024-03-25T06:43:06;6.90;99.90
52869;DHT22;39100;53.480;6.158;2024-03-25T06:45:32;6.90;99.90
52869;DHT22;39100;53.480;6.158;2024-03-25T06:47:57;6.90;99.90
52869;DHT22;39100;53.480;6.158;2024-03-25T06:50:24;7.00;99.90
52869;DHT22;39100;53.480;6.158;2024-03-25T06:52:50;7.00;99.90
52869;DHT22;39100;53.480;6.158;2024-03-25T06:55:15;7.00;99.90
52869;DHT22;39100;53.480;6.158;2024-03-25T06:57:41;6.90;99.90
52869;DHT22;39100;53.480;6.158;2024-03-25T07:00:07;6.90;99.90
52869;DHT22;39100;53.480;6.158;2024-03-25T07:02:41;6.90;99.90
52869;DHT22;39100;53.480;6.158;2024-03-25T07:05:07;7.00;99.90
52869;DHT22;39100;53.480;6.158;2024-03-25T07:07:33;7.10;99.90
52869;DHT22;39100;53.480;6.158;2024-03-25T07:10:02;7.20;99.90
52869;DHT22;39100;53.480;6.158;2024-03-25T07:12:28;7.20;99.90
52869;DHT22;39100;53.480;6.158;2024-03-25T07:14:54;7.30;99.90
52869;DHT22;39100;53.480;6.158;2024-03-25T07:17:19;7.40;99.90
52869;DHT22;39100;53.480;6.158;2024-03-25T07:19:47;7.30;99.90
52869;DHT22;39100;53.480;6.158;2024-03-25T07:22:13;7.50;99.90
52869;DHT22;39100;53.480;6.158;2024-03-25T07:24:38;7.30;99.90
52869;DHT22;39100;53.480;6.158;2024-03-25T07:27:04;7.40;99.90
52869;DHT22;39100;53.480;6.158;2024-03-25T07:29:31;7.60;99.90
52869;DHT22;39100;53.480;6.158;2024-03-25T07:31:56;7.90;99.90
52869;DHT22;39100;53.480;6.158;2024-03-25T07:34:22;8.30;99.90
52869;DHT22;39100;53.480;6.158;2024-03-25T07:36:47;8.70;99.90
52869;DHT22;39100;53.480;6.158;2024-03-25T07:39:14;9.00;99.90
52869;DHT22;39100;53.480;6.158;2024-03-25T07:41:40;9.30;99.90
52869;DHT22;39100;53.480;6.158;2024-03-25T07:44:06;9.60;99.90
52869;DHT22;39100;53.480;6.158;2024-03-25T07:46:31;9.90;99.90
52869;DHT22;39100;53.480;6.158;2024-03-25T07:48:57;10.10;99.90
52869;DHT22;39100;53.480;6.158;2024-03-25T07:51:23;10.20;99.90
52869;DHT22;39100;53.480;6.158;2024-03-25T07:53:48;10.30;99.90
52869;DHT22;39100;53.480;6.158;2024-03-25T07:56:15;10.20;99.90
52869;DHT22;39100;53.480;6.158;2024-03-25T07:58:41;10.30;99.90
52869;DHT22;39100;53.480;6.158;2024-03-25T08:01:07;10.50;99.90
52869;DHT22;39100;53.480;6.158;2024-03-25T08:03:33;10.50;99.90
52869;DHT22;39100;53.480;6.158;2024-03-25T08:05:59;10.70;99.90
52869;DHT22;39100;53.480;6.158;2024-03-25T08:08:25;11.00;99.90
52869;DHT22;39100;53.480;6.158;2024-03-25T08:10:50;11.10;99.90
52869;DHT22;39100;53.480;6.158;2024-03-25T08:13:18;11.30;99.90
52869;DHT22;39100;53.480;6.158;2024-03-25T08:15:45;11.40;99.90
52869;DHT22;39100;53.480;6.158;2024-03-25T08:18:11;11.60;99.90
52869;DHT22;39100;53.480;6.158;2024-03-25T08:20:37;11.70;99.90
52869;DHT22;39100;53.480;6.158;2024-03-25T08:23:03;11.80;99.90
52869;DHT22;39100;53.480;6.158;2024-03-25T08:25:29;12.00;99.90
52869;DHT22;39100;53.480;6.158;2024-03-25T08:27:54;12.30;99.90
52869;DHT22;39100;53.480;6.158;2024-03-25T08:30:20;12.40;99.90
52869;DHT22;39100;53.480;6.158;2024-03-25T08:32:45;12.10;99.90
52869;DHT22;39100;53.480;6.158;2024-03-25T08:35:11;11.60;99.90
52869;DHT22;39100;53.480;6.158;2024-03-25T08:37:37;11.00;99.90
52869;DHT22;39100;53.480;6.158;2024-03-25T08:40:02;11.00;99.90
52869;DHT22;39100;53.480;6.158;2024-03-25T08:42:29;10.20;99.90
52869;DHT22;39100;53.480;6.158;2024-03-25T08:44:55;9.90;99.90
52869;DHT22;39100;53.480;6.158;2024-03-25T08:47:20;9.70;99.90
52869;DHT22;39100;53.480;6.158;2024-03-25T08:49:46;9.70;99.90
52869;DHT22;39100;53.480;6.158;2024-03-25T08:52:12;9.90;99.90
52869;DHT22;39100;53.480;6.158;2024-03-25T08:54:38;10.30;99.90
52869;DHT22;39100;53.480;6.158;2024-03-25T08:57:04;10.90;99.90
52869;DHT22;39100;53.480;6.158;2024-03-25T08:59:30;11.40;99.90
52869;DHT22;39100;53.480;6.158;2024-03-25T09:01:55;12.10;99.90
52869;DHT22;39100;53.480;6.158;2024-03-25T09:04:21;12.60;99.90
52869;DHT22;39100;53.480;6.158;2024-03-25T09:06:46;12.70;99.90
52869;DHT22;39100;53.480;6.158;2024-03-25T09:09:13;12.50;99.90
52869;DHT22;39100;53.480;6.158;2024-03-25T09:11:57;12.40;99.90
52869;DHT22;39100;53.480;6.158;2024-03-25T09:14:23;12.30;99.90
52869;DHT22;39100;53.480;6.158;2024-03-25T09:16:48;12.40;99.90
52869;DHT22;39100;53.480;6.158;2024-03-25T09:19:14;12.60;99.90
52869;DHT22;39100;53.480;6.158;2024-03-25T09:21:39;13.00;99.90
52869;DHT22;39100;53.480;6.158;2024-03-25T09:24:06;13.50;99.90
52869;DHT22;39100;53.480;6.158;2024-03-25T09:26:32;14.40;99.90
52869;DHT22;39100;53.480;6.158;2024-03-25T09:28:57;15.10;99.90
52869;DHT22;39100;53.480;6.158;2024-03-25T09:31:23;15.50;99.90
52869;DHT22;39100;53.480;6.158;2024-03-25T09:33:48;15.30;99.90
52869;DHT22;39100;53.480;6.158;2024-03-25T09:36:14;14.80;99.90
52869;DHT22;39100;53.480;6.158;2024-03-25T09:38:40;14.10;99.90
52869;DHT22;39100;53.480;6.158;2024-03-25T09:41:08;13.50;99.90
52869;DHT22;39100;53.480;6.158;2024-03-25T09:43:43;13.00;99.90
52869;DHT22;39100;53.480;6.158;2024-03-25T09:46:11;12.60;99.90
52869;DHT22;39100;53.480;6.158;2024-03-25T09:48:37;12.50;99.90
52869;DHT22;39100;53.480;6.158;2024-03-25T09:51:06;12.20;99.90
52869;DHT22;39100;53.480;6.158;2024-03-25T09:53:32;12.20;99.90
52869;DHT22;39100;53.480;6.158;2024-03-25T09:55:58;12.60;99.90
52869;DHT22;39100;53.480;6.158;2024-03-25T09:58:25;13.40;99.90
52869;DHT22;39100;53.480;6.158;2024-03-25T10:00:51;13.70;99.90
52869;DHT22;39100;53.480;6.158;2024-03-25T10:03:17;14.10;99.90
52869;DHT22;39100;53.480;6.158;2024-03-25T10:05:43;14.40;99.90
52869;DHT22;39100;53.480;6.158;2024-03-25T10:08:08;15.50;99.90
52869;DHT22;39100;53.480;6.158;2024-03-25T10:10:35;16.40;99.90
52869;DHT22;39100;53.480;6.158;2024-03-25T10:13:05;17.10;99.90
52869;DHT22;39100;53.480;6.158;2024-03-25T10:15:32;17.90;99.90
52869;DHT22;39100;53.480;6.158;2024-03-25T10:17:58;18.30;99.90
52869;DHT22;39100;53.480;6.158;2024-03-25T10:20:23;18.60;99.90
52869;DHT22;39100;53.480;6.158;2024-03-25T10:22:51;18.60;99.90
52869;DHT22;39100;53.480;6.158;2024-03-25T10:28:08;18.70;99.90
52869;DHT22;39100;53.480;6.158;2024-03-25T10:30:34;18.20;99.90
52869;DHT22;39100;53.480;6.158;2024-03-25T10:33:04;18.30;99.90
52869;DHT22;39100;53.480;6.158;2024-03-25T10:35:31;18.00;99.90
52869;DHT22;39100;53.480;6.158;2024-03-25T10:38:03;18.40;99.90
52869;DHT22;39100;53.480;6.158;2024-03-25T10:40:32;18.20;99.90
52869;DHT22;39100;53.480;6.158;2024-03-25T10:43:08;18.40;99.90
52869;DHT22;39100;53.480;6.158;2024-03-25T10:45:39;18.70;99.90
52869;DHT22;39100;53.480;6.158;2024-03-25T10:48:11;18.40;99.90
52869;DHT22;39100;53.480;6.158;2024-03-25T10:50:39;18.30;99.90
52869;DHT22;39100;53.480;6.158;2024-03-25T10:53:07;18.30;99.90
52869;DHT22;39100;53.480;6.158;2024-03-25T10:55:35;18.20;99.90
52869;DHT22;39100;53.480;6.158;2024-03-25T10:58:02;18.50;99.90
52869;DHT22;39100;53.480;6.158;2024-03-25T11:00:29;18.50;99.90
52869;DHT22;39100;53.480;6.158;2024-03-25T11:02:55;19.00;99.90
52869;DHT22;39100;53.480;6.158;2024-03-25T11:05:22;19.00;99.90
52869;DHT22;39100;53.480;6.158;2024-03-25T11:07:48;19.70;99.90
52869;DHT22;39100;53.480;6.158;2024-03-25T11:10:15;20.00;99.90
52869;DHT22;39100;53.480;6.158;2024-03-25T11:12:41;20.10;99.90
52869;DHT22;39100;53.480;6.158;2024-03-25T11:15:08;21.00;99.90
52869;DHT22;39100;53.480;6.158;2024-03-25T11:17:35;20.30;99.90
52869;DHT22;39100;53.480;6.158;2024-03-25T11:20:10;20.70;99.90
52869;DHT22;39100;53.480;6.158;2024-03-25T11:22:50;21.20;99.90
52869;DHT22;39100;53.480;6.158;2024-03-25T11:25:16;21.00;99.90
52869;DHT22;39100;53.480;6.158;2024-03-25T11:27:45;21.10;99.90
52869;DHT22;39100;53.480;6.158;2024-03-25T11:30:12;21.40;99.90
52869;DHT22;39100;53.480;6.158;2024-03-25T11:32:51;21.40;99.90
52869;DHT22;39100;53.480;6.158;2024-03-25T11:35:18;21.80;99.90
52869;DHT22;39100;53.480;6.158;2024-03-25T11:37:44;22.40;99.90
52869;DHT22;39100;53.480;6.158;2024-03-25T11:40:11;22.30;99.90
52869;DHT22;39100;53.480;6.158;2024-03-25T11:42:40;22.60;99.90
52869;DHT22;39100;53.480;6.158;2024-03-25T11:45:07;22.80;99.90
52869;DHT22;39100;53.480;6.158;2024-03-25T11:47:33;22.60;99.90
52869;DHT22;39100;53.480;6.158;2024-03-25T11:49:59;22.20;99.90
52869;DHT22;39100;53.480;6.158;2024-03-25T11:52:30;21.70;99.90
52869;DHT22;39100;53.480;6.158;2024-03-25T11:54:56;21.70;99.90
52869;DHT22;39100;53.480;6.158;2024-03-25T11:57:22;21.70;99.90
52869;DHT22;39100;53.480;6.158;2024-03-25T11:59:48;21.80;99.90
52869;DHT22;39100;53.480;6.158;2024-03-25T12:02:18;21.50;99.90
52869;DHT22;39100;53.480;6.158;2024-03-25T12:04:44;21.30;99.90
52869;DHT22;39100;53.480;6.158;2024-03-25T12:07:16;21.30;99.90
52869;DHT22;39100;53.480;6.158;2024-03-25T12:09:43;20.40;99.90
52869;DHT22;39100;53.480;6.158;2024-03-25T12:12:27;20.20;99.90
52869;DHT22;39100;53.480;6.158;2024-03-25T12:14:57;19.60;99.90
52869;DHT22;39100;53.480;6.158;2024-03-25T12:17:23;19.70;99.90
52869;DHT22;39100;53.480;6.158;2024-03-25T12:20:02;20.00;99.90
52869;DHT22;39100;53.480;6.158;2024-03-25T12:22:30;20.60;99.90
52869;DHT22;39100;53.480;6.158;2024-03-25T12:25:03;20.30;99.90
52869;DHT22;39100;53.480;6.158;2024-03-25T12:27:29;20.30;99.90
52869;DHT22;39100;53.480;6.158;2024-03-25T12:32:44;21.00;99.90
52869;DHT22;39100;53.480;6.158;2024-03-25T12:37:37;21.20;99.90
52869;DHT22;39100;53.480;6.158;2024-03-25T12:40:04;21.90;99.90
52869;DHT22;39100;53.480;6.158;2024-03-25T12:42:32;22.10;99.90
52869;DHT22;39100;53.480;6.158;2024-03-25T12:44:58;22.20;99.90
52869;DHT22;39100;53.480;6.158;2024-03-25T12:47:23;22.10;99.90
52869;DHT22;39100;53.480;6.158;2024-03-25T12:49:49;22.30;99.90
52869;DHT22;39100;53.480;6.158;2024-03-25T12:52:15;22.00;99.90
52869;DHT22;39100;53.480;6.158;2024-03-25T12:54:40;21.50;99.90
52869;DHT22;39100;53.480;6.158;2024-03-25T12:57:09;21.00;99.90
52869;DHT22;39100;53.480;6.158;2024-03-25T12:59:35;20.30;99.90
52869;DHT22;39100;53.480;6.158;2024-03-25T13:02:00;19.90;99.90
52869;DHT22;39100;53.480;6.158;2024-03-25T13:04:26;19.40;99.90
52869;DHT22;39100;53.480;6.158;2024-03-25T13:06:52;19.20;99.90
52869;DHT22;39100;53.480;6.158;2024-03-25T13:09:17;18.90;99.90
52869;DHT22;39100;53.480;6.158;2024-03-25T13:11:43;18.50;99.90
52869;DHT22;39100;53.480;6.158;2024-03-25T13:14:12;18.40;99.90
52869;DHT22;39100;53.480;6.158;2024-03-25T13:16:38;18.20;99.90
52869;DHT22;39100;53.480;6.158;2024-03-25T13:19:04;18.10;99.90
52869;DHT22;39100;53.480;6.158;2024-03-25T13:21:29;17.90;99.90
52869;DHT22;39100;53.480;6.158;2024-03-25T13:23:55;17.70;99.90
52869;DHT22;39100;53.480;6.158;2024-03-25T13:26:21;17.30;99.90
52869;DHT22;39100;53.480;6.158;2024-03-25T13:28:46;17.20;99.90
52869;DHT22;39100;53.480;6.158;2024-03-25T13:31:12;17.20;99.90
52869;DHT22;39100;53.480;6.158;2024-03-25T13:33:41;17.30;99.90
52869;DHT22;39100;53.480;6.158;2024-03-25T13:36:07;17.00;99.90
52869;DHT22;39100;53.480;6.158;2024-03-25T13:38:33;16.70;99.90
52869;DHT22;39100;53.480;6.158;2024-03-25T13:41:00;16.50;99.90
52869;DHT22;39100;53.480;6.158;2024-03-25T13:43:26;16.30;99.90
52869;DHT22;39100;53.480;6.158;2024-03-25T13:45:51;16.20;99.90
52869;DHT22;39100;53.480;6.158;2024-03-25T13:48:17;16.00;99.90
52869;DHT22;39100;53.480;6.158;2024-03-25T13:50:43;15.80;99.90
52869;DHT22;39100;53.480;6.158;2024-03-25T13:53:11;15.60;99.90
52869;DHT22;39100;53.480;6.158;2024-03-25T13:55:37;15.70;99.90
52869;DHT22;39100;53.480;6.158;2024-03-25T13:58:03;15.60;99.90
52869;DHT22;39100;53.480;6.158;2024-03-25T14:00:30;15.80;99.90
52869;DHT22;39100;53.480;6.158;2024-03-25T14:02:57;15.80;99.90
52869;DHT22;39100;53.480;6.158;2024-03-25T14:05:23;16.00;99.90
52869;DHT22;39100;53.480;6.158;2024-03-25T14:07:49;15.80;99.90
52869;DHT22;39100;53.480;6.158;2024-03-25T14:10:15;15.30;99.90
52869;DHT22;39100;53.480;6.158;2024-03-25T14:12:40;15.10;99.90
52869;DHT22;39100;53.480;6.158;2024-03-25T14:15:06;15.10;99.90
52869;DHT22;39100;53.480;6.158;2024-03-25T14:17:32;15.10;99.90
52869;DHT22;39100;53.480;6.158;2024-03-25T14:19:58;15.00;99.90
52869;DHT22;39100;53.480;6.158;2024-03-25T14:22:23;15.20;99.90
52869;DHT22;39100;53.480;6.158;2024-03-25T14:24:49;15.10;99.90
52869;DHT22;39100;53.480;6.158;2024-03-25T14:27:15;14.90;99.90
52869;DHT22;39100;53.480;6.158;2024-03-25T14:29:41;15.10;99.90
52869;DHT22;39100;53.480;6.158;2024-03-25T14:32:08;15.00;99.90
52869;DHT22;39100;53.480;6.158;2024-03-25T14:34:33;15.00;99.90
52869;DHT22;39100;53.480;6.158;2024-03-25T14:36:59;14.80;99.90
52869;DHT22;39100;53.480;6.158;2024-03-25T14:39:27;14.50;99.90
52869;DHT22;39100;53.480;6.158;2024-03-25T14:41:53;14.50;99.90
52869;DHT22;39100;53.480;6.158;2024-03-25T14:44:18;14.40;99.90
52869;DHT22;39100;53.480;6.158;2024-03-25T14:46:44;14.30;99.90
52869;DHT22;39100;53.480;6.158;2024-03-25T14:49:09;14.60;99.90
52869;DHT22;39100;53.480;6.158;2024-03-25T14:51:35;14.70;99.90
52869;DHT22;39100;53.480;6.158;2024-03-25T14:54:01;14.30;99.90
52869;DHT22;39100;53.480;6.158;2024-03-25T14:56:28;14.10;99.90
52869;DHT22;39100;53.480;6.158;2024-03-25T14:58:54;13.80;99.90
52869;DHT22;39100;53.480;6.158;2024-03-25T15:01:20;14.20;99.90
52869;DHT22;39100;53.480;6.158;2024-03-25T15:03:45;13.50;99.90
52869;DHT22;39100;53.480;6.158;2024-03-25T15:06:11;13.70;99.90
52869;DHT22;39100;53.480;6.158;2024-03-25T15:08:37;13.70;99.90
52869;DHT22;39100;53.480;6.158;2024-03-25T15:11:03;13.50;99.90
52869;DHT22;39100;53.480;6.158;2024-03-25T15:13:30;13.50;99.90
52869;DHT22;39100;53.480;6.158;2024-03-25T15:15:56;13.40;99.90
52869;DHT22;39100;53.480;6.158;2024-03-25T15:18:22;13.50;99.90
52869;DHT22;39100;53.480;6.158;2024-03-25T15:20:47;13.60;99.90
52869;DHT22;39100;53.480;6.158;2024-03-25T15:23:13;13.70;99.90
52869;DHT22;39100;53.480;6.158;2024-03-25T15:25:39;14.00;99.90
52869;DHT22;39100;53.480;6.158;2024-03-25T15:28:04;13.80;99.90
52869;DHT22;39100;53.480;6.158;2024-03-25T15:30:31;13.70;99.90
52869;DHT22;39100;53.480;6.158;2024-03-25T15:32:57;13.70;99.90
52869;DHT22;39100;53.480;6.158;2024-03-25T15:35:22;13.90;99.90
52869;DHT22;39100;53.480;6.158;2024-03-25T15:37:48;14.20;99.90
52869;DHT22;39100;53.480;6.158;2024-03-25T15:40:13;13.90;99.90
52869;DHT22;39100;53.480;6.158;2024-03-25T15:42:43;13.40;99.90